Grant, Nebraska
Current Conditions -  °F | °C
As of 1:55 PM on Friday 31 Oct 2014 (Local Time) from KOGA Reporting Station
Clear Clear  
Wind Chill: 42°   Ceiling: Unl
Heat Index: 48°   Visibility: 10mi
Dew Point: 27°   Wind: 14mph
Humidity: 44%   Direction: 170°S
Pressure: 30.33"   Gusts: 18mph
Location:  40.84°N, 101.73°W
Report Text: KOGA 311955Z AUTO 17012G16KT 10SM CLR 09/M03 A3033 RMK AO2 T00871030
Loading
Personal Weather Stations






























Interactive Weather Map
Tropical Storm Tracking
New forecast layout! Learn more

10-Day Weather Forecast

Advertisements
Track Severe Weather on mobile